Terminal Aerodrome Forecast
Issued by NWS Wilmington, NC

Current Version | Previous Version | Graphics & Text | Print | Product List | Glossary Off
Versions: 1 2 3 4 5 6 7 8 9 10 11 12 13

038
FTUS42 KILM 231120
TAFMYR
TAF
KMYR 231120Z 2312/2412 10012G17KT P6SM VCSH SCT030 BKN090
     FM231300 11015G25KT P6SM -RA SCT030 OVC050
     FM231600 12020G30KT 4SM RA OVC025
     FM232100 10012G25KT 3SM RA BR OVC015
     FM240000 10024G30KT 1 1/2SM -RA BR OVC007=

USA.gov is the U.S. government's official web portal to all federal, state and local government web resources and services.